Terminal Aerodrome Forecast
Issued by NWS

Home | Current Version | Previous Version | Text Only | Print | Product List | Glossary On
Versions: 1 2 3 4 5 6 7 8 9 10 11 12 13 14 15 16 17 18 19 20 21 22 23 24 25 26 27 28 29 30 31 32
168
FTAK31 PANC 240716 AAA
TAFAVD
TAF AMD
PAVD 240716Z 2407/2506 VRB03KT 6SM -RA BR SCT020 BKN045 OVC070
      TEMPO 2407/2409 3SM -RA BR BKN004 OVC045
     FM240900 VRB03KT P6SM VCSH OVC025
     FM242100 26004KT P6SM OVC025
      AMD LTD TO CLD VIS AND WIND=

USA.gov is the U.S. government's official web portal to all federal, state and local government web resources and services.